Time,TemperatureF,DewpointF,PressureIn,WindDirection,WindDirectionDegrees,WindSpeedMPH,WindSpeedGustMPH,Humidity,HourlyPrecipIn,Conditions,Clouds,dailyrainin,SoftwareType,DateUTC
2013-10-07 00:09:00,69.8,65.0,29.72,SE,144,3.0,7.0,85,0.00,,,0.00,weatherlink.com 1.10,2013-10-07 04:09:00,
2013-10-07 00:24:00,69.4,65.0,29.72,SSW,207,3.0,6.0,86,0.00,,,0.00,weatherlink.com 1.10,2013-10-07 04:24:00,
2013-10-07 00:39:00,69.3,65.0,29.72,SSE,163,3.0,5.0,87,0.00,,,0.00,weatherlink.com 1.10,2013-10-07 04:39:00,
2013-10-07 00:54:00,69.4,65.0,29.72,SSW,197,3.0,8.0,86,0.00,,,0.00,weatherlink.com 1.10,2013-10-07 04:54:00,
2013-10-07 01:09:00,69.6,65.0,29.71,SW,227,3.0,8.0,86,0.00,,,0.00,weatherlink.com 1.10,2013-10-07 05:09:00,
2013-10-07 01:24:00,69.9,65.0,29.71,SSE,157,3.0,8.0,85,0.00,,,0.00,weatherlink.com 1.10,2013-10-07 05:24:00,
2013-10-07 01:40:00,69.8,65.0,29.70,SE,142,2.0,7.0,85,0.00,,,0.00,weatherlink.com 1.10,2013-10-07 05:40:00,
2013-10-07 01:55:00,69.6,65.0,29.70,SSE,160,2.0,8.0,85,0.00,,,0.00,weatherlink.com 1.10,2013-10-07 05:55:00,
2013-10-07 02:10:00,69.4,65.0,29.69,SSE,165,3.0,9.0,86,0.00,,,0.00,weatherlink.com 1.10,2013-10-07 06:10:00,
2013-10-07 02:25:00,69.5,65.0,29.68,SSE,156,1.0,11.0,85,0.00,,,0.00,weatherlink.com 1.10,2013-10-07 06:25:00,
2013-10-07 02:40:00,69.4,65.0,29.68,South,184,1.0,7.0,85,0.00,,,0.00,weatherlink.com 1.10,2013-10-07 06:40:00,
2013-10-07 02:55:00,69.4,65.0,29.67,SSE,151,1.0,9.0,85,0.00,,,0.00,weatherlink.com 1.10,2013-10-07 06:55:00,
2013-10-07 03:10:00,69.4,64.0,29.66,SSW,193,1.0,7.0,84,0.00,,,0.00,weatherlink.com 1.10,2013-10-07 07:10:00,
2013-10-07 03:25:00,69.4,64.0,29.65,SW,231,1.0,8.0,84,0.00,,,0.00,weatherlink.com 1.10,2013-10-07 07:25:00,
2013-10-07 03:40:00,69.4,64.0,29.64,SSW,205,4.0,8.0,84,0.00,,,0.00,weatherlink.com 1.10,2013-10-07 07:40:00,
2013-10-07 03:55:00,69.2,64.0,29.64,South,186,2.0,8.0,84,0.00,,,0.00,weatherlink.com 1.10,2013-10-07 07:55:00,
2013-10-07 04:10:00,69.2,64.0,29.63,ESE,120,3.0,8.0,84,0.00,,,0.00,weatherlink.com 1.10,2013-10-07 08:10:00,
2013-10-07 04:25:00,69.2,64.0,29.63,SW,217,1.0,7.0,84,0.00,,,0.00,weatherlink.com 1.10,2013-10-07 08:25:00,
2013-10-07 04:40:00,69.5,64.0,29.63,SSE,167,2.0,7.0,83,0.00,,,0.00,weatherlink.com 1.10,2013-10-07 08:40:00,
2013-10-07 04:55:00,69.6,64.0,29.63,SE,143,2.0,8.0,83,0.00,,,0.00,weatherlink.com 1.10,2013-10-07 08:55:00,
2013-10-07 05:10:00,69.7,64.0,29.63,SSW,193,1.0,8.0,82,0.00,,,0.00,weatherlink.com 1.10,2013-10-07 09:10:00,
2013-10-07 05:25:00,69.7,64.0,29.63,SE,139,2.0,6.0,82,0.00,,,0.00,weatherlink.com 1.10,2013-10-07 09:25:00,
2013-10-07 05:40:00,69.8,64.0,29.62,SSE,156,2.0,7.0,82,0.00,,,0.00,weatherlink.com 1.10,2013-10-07 09:40:00,
2013-10-07 05:55:00,69.9,64.0,29.62,ENE,78,1.0,6.0,81,0.00,,,0.00,weatherlink.com 1.10,2013-10-07 09:55:00,
2013-10-07 06:10:00,70.1,64.0,29.61,WSW,246,0.0,6.0,80,0.00,,,0.00,weatherlink.com 1.10,2013-10-07 10:10:00,
2013-10-07 06:25:00,70.3,64.0,29.61,West,278,2.0,6.0,80,0.00,,,0.00,weatherlink.com 1.10,2013-10-07 10:25:00,
2013-10-07 06:40:00,70.4,64.0,29.61,West,261,2.0,10.0,79,0.00,,,0.00,weatherlink.com 1.10,2013-10-07 10:40:00,
2013-10-07 06:55:00,70.6,64.0,29.61,SW,231,1.0,9.0,79,0.00,,,0.00,weatherlink.com 1.10,2013-10-07 10:55:00,
2013-10-07 07:10:00,70.7,64.0,29.60,SW,215,2.0,7.0,79,0.00,,,0.00,weatherlink.com 1.10,2013-10-07 11:10:00,
2013-10-07 07:25:00,70.8,64.0,29.60,South,179,6.0,9.0,78,0.00,,,0.00,weatherlink.com 1.10,2013-10-07 11:25:00,
2013-10-07 07:40:00,70.7,64.0,29.60,SSW,194,1.0,7.0,79,0.00,,,0.00,weatherlink.com 1.10,2013-10-07 11:40:00,
2013-10-07 07:55:00,69.6,64.0,29.62,WNW,286,5.0,13.0,81,0.00,,,0.00,weatherlink.com 1.10,2013-10-07 11:55:00,
2013-10-07 08:10:00,66.8,61.0,29.62,WNW,297,15.0,15.0,81,0.00,,,0.00,weatherlink.com 1.10,2013-10-07 12:10:00,
2013-10-07 08:25:00,64.6,58.0,29.62,WNW,294,11.0,15.0,80,0.00,,,0.00,weatherlink.com 1.10,2013-10-07 12:25:00,
2013-10-07 08:40:00,63.7,58.0,29.61,NW,304,4.0,13.0,81,0.00,,,0.00,weatherlink.com 1.10,2013-10-07 12:40:00,
2013-10-07 08:56:00,62.5,58.0,29.63,NW,318,14.0,15.0,85,0.00,,,0.00,weatherlink.com 1.10,2013-10-07 12:56:00,
2013-10-07 09:11:00,60.9,58.0,29.64,WNW,300,11.0,12.0,90,0.04,,,0.04,weatherlink.com 1.10,2013-10-07 13:11:00,
2013-10-07 09:26:00,59.2,58.0,29.64,WNW,293,10.0,14.0,94,0.13,,,0.13,weatherlink.com 1.10,2013-10-07 13:26:00,
2013-10-07 09:41:00,58.9,58.0,29.64,NW,305,6.0,12.0,95,0.20,,,0.20,weatherlink.com 1.10,2013-10-07 13:41:00,
2013-10-07 09:56:00,58.6,57.0,29.63,WNW,283,4.0,9.0,95,0.24,,,0.24,weatherlink.com 1.10,2013-10-07 13:56:00,
2013-10-07 10:11:00,58.6,58.0,29.64,WNW,283,4.0,7.0,96,0.25,,,0.29,weatherlink.com 1.10,2013-10-07 14:11:00,
2013-10-07 10:26:00,58.7,58.0,29.64,WNW,293,3.0,7.0,96,0.21,,,0.34,weatherlink.com 1.10,2013-10-07 14:26:00,
2013-10-07 10:41:00,59.1,58.0,29.65,West,274,5.0,9.0,96,0.17,,,0.37,weatherlink.com 1.10,2013-10-07 14:41:00,
2013-10-07 10:56:00,59.1,58.0,29.65,West,264,4.0,7.0,95,0.15,,,0.39,weatherlink.com 1.10,2013-10-07 14:56:00,
2013-10-07 11:11:00,59.0,56.0,29.66,WNW,287,9.0,21.0,90,0.11,,,0.40,weatherlink.com 1.10,2013-10-07 15:11:00,
2013-10-07 11:26:00,58.4,56.0,29.66,NW,304,14.0,14.0,93,0.08,,,0.42,weatherlink.com 1.10,2013-10-07 15:26:00,
2013-10-07 11:41:00,58.2,57.0,29.66,WNW,291,6.0,11.0,94,0.06,,,0.43,weatherlink.com 1.10,2013-10-07 15:41:00,
2013-10-07 11:56:00,58.0,57.0,29.66,WNW,293,5.0,10.0,95,0.05,,,0.44,weatherlink.com 1.10,2013-10-07 15:56:00,
2013-10-07 12:11:00,57.6,56.0,29.66,WNW,283,8.0,16.0,93,0.08,,,0.48,weatherlink.com 1.10,2013-10-07 16:11:00,
2013-10-07 12:26:00,57.2,55.0,29.66,WNW,289,8.0,16.0,93,0.08,,,0.50,weatherlink.com 1.10,2013-10-07 16:26:00,
2013-10-07 12:41:00,56.5,54.0,29.67,West,276,15.0,24.0,90,0.08,,,0.51,weatherlink.com 1.10,2013-10-07 16:41:00,
2013-10-07 12:56:00,55.9,53.0,29.66,West,280,6.0,12.0,91,0.06,,,0.51,weatherlink.com 1.10,2013-10-07 16:56:00,
2013-10-07 13:11:00,55.7,53.0,29.66,West,260,11.0,13.0,91,0.04,,,0.52,weatherlink.com 1.10,2013-10-07 17:11:00,
2013-10-07 13:26:00,55.4,51.0,29.67,NW,308,17.0,21.0,86,0.02,,,0.52,weatherlink.com 1.10,2013-10-07 17:26:00,
2013-10-07 13:41:00,55.0,50.0,29.68,West,276,13.0,22.0,83,0.01,,,0.52,weatherlink.com 1.10,2013-10-07 17:41:00,
2013-10-07 13:56:00,55.0,49.0,29.68,West,279,7.0,16.0,79,0.00,,,0.52,weatherlink.com 1.10,2013-10-07 17:56:00,
2013-10-07 14:11:00,55.4,49.0,29.68,West,271,9.0,13.0,79,0.00,,,0.52,weatherlink.com 1.10,2013-10-07 18:11:00,
2013-10-07 14:26:00,56.1,49.0,29.69,WSW,254,4.0,12.0,76,0.00,,,0.52,weatherlink.com 1.10,2013-10-07 18:26:00,
2013-10-07 14:41:00,58.2,50.0,29.69,West,269,12.0,16.0,75,0.00,,,0.52,weatherlink.com 1.10,2013-10-07 18:41:00,
2013-10-07 14:56:00,59.1,48.0,29.70,SW,236,6.0,17.0,68,0.00,,,0.52,weatherlink.com 1.10,2013-10-07 18:56:00,
2013-10-07 15:11:00,58.4,49.0,29.71,West,260,4.0,19.0,70,0.00,,,0.52,weatherlink.com 1.10,2013-10-07 19:11:00,
2013-10-07 15:26:00,58.3,49.0,29.72,NW,307,5.0,9.0,72,0.00,,,0.52,weatherlink.com 1.10,2013-10-07 19:26:00,
2013-10-07 15:41:00,59.2,51.0,29.71,WNW,288,6.0,7.0,73,0.00,,,0.52,weatherlink.com 1.10,2013-10-07 19:41:00,
2013-10-07 15:56:00,58.6,50.0,29.72,NW,306,7.0,12.0,74,0.00,,,0.52,weatherlink.com 1.10,2013-10-07 19:56:00,
2013-10-07 16:11:00,58.2,50.0,29.73,West,277,4.0,10.0,73,0.00,,,0.52,weatherlink.com 1.10,2013-10-07 20:11:00,
2013-10-07 16:26:00,58.3,46.0,29.74,West,279,12.0,15.0,65,0.00,,,0.52,weatherlink.com 1.10,2013-10-07 20:26:00,
2013-10-07 16:41:00,58.4,46.0,29.75,WNW,294,8.0,17.0,63,0.00,,,0.52,weatherlink.com 1.10,2013-10-07 20:41:00,
2013-10-07 16:56:00,55.5,50.0,29.77,NW,319,9.0,24.0,81,0.00,,,0.52,weatherlink.com 1.10,2013-10-07 20:56:00,
2013-10-07 17:12:00,54.9,50.0,29.78,WNW,293,6.0,16.0,82,0.00,,,0.52,weatherlink.com 1.10,2013-10-07 21:12:00,
2013-10-07 17:27:00,54.2,49.0,29.79,NW,308,10.0,22.0,82,0.00,,,0.52,weatherlink.com 1.10,2013-10-07 21:27:00,
2013-10-07 17:42:00,54.4,48.0,29.80,West,276,9.0,15.0,79,0.00,,,0.52,weatherlink.com 1.10,2013-10-07 21:42:00,
2013-10-07 17:57:00,55.0,47.0,29.80,WNW,286,8.0,21.0,74,0.00,,,0.52,weatherlink.com 1.10,2013-10-07 21:57:00,
2013-10-07 18:12:00,55.1,47.0,29.80,West,268,12.0,18.0,73,0.00,,,0.52,weatherlink.com 1.10,2013-10-07 22:12:00,
2013-10-07 18:27:00,55.0,46.0,29.81,West,270,10.0,16.0,73,0.00,,,0.52,weatherlink.com 1.10,2013-10-07 22:27:00,
2013-10-07 18:42:00,54.6,46.0,29.82,West,264,6.0,10.0,74,0.00,,,0.52,weatherlink.com 1.10,2013-10-07 22:42:00,
2013-10-07 18:57:00,54.7,47.0,29.83,WSW,258,4.0,9.0,76,0.00,,,0.52,weatherlink.com 1.10,2013-10-07 22:57:00,
2013-10-07 19:12:00,54.5,47.0,29.84,West,274,6.0,12.0,75,0.00,,,0.52,weatherlink.com 1.10,2013-10-07 23:12:00,
2013-10-07 19:27:00,54.6,46.0,29.84,West,273,7.0,15.0,73,0.00,,,0.52,weatherlink.com 1.10,2013-10-07 23:27:00,
2013-10-07 19:42:00,54.5,46.0,29.85,WSW,253,11.0,13.0,73,0.00,,,0.52,weatherlink.com 1.10,2013-10-07 23:42:00,
2013-10-07 19:57:00,54.9,46.0,29.86,West,276,10.0,15.0,71,0.00,,,0.52,weatherlink.com 1.10,2013-10-07 23:57:00,
2013-10-07 20:12:00,55.1,46.0,29.87,WNW,286,6.0,15.0,71,0.00,,,0.52,weatherlink.com 1.10,2013-10-08 00:12:00,
2013-10-07 20:27:00,55.2,46.0,29.88,West,270,8.0,17.0,72,0.00,,,0.52,weatherlink.com 1.10,2013-10-08 00:27:00,
2013-10-07 20:42:00,54.9,46.0,29.88,West,277,6.0,16.0,72,0.00,,,0.52,weatherlink.com 1.10,2013-10-08 00:42:00,
2013-10-07 20:57:00,54.6,46.0,29.89,West,272,8.0,17.0,73,0.00,,,0.52,weatherlink.com 1.10,2013-10-08 00:57:00,
2013-10-07 21:12:00,54.9,46.0,29.91,West,274,7.0,14.0,73,0.00,,,0.52,weatherlink.com 1.10,2013-10-08 01:12:00,
2013-10-07 21:27:00,55.0,47.0,29.92,WNW,284,9.0,20.0,74,0.00,,,0.52,weatherlink.com 1.10,2013-10-08 01:27:00,
2013-10-07 21:42:00,54.6,47.0,29.93,WNW,287,7.0,17.0,76,0.00,,,0.52,weatherlink.com 1.10,2013-10-08 01:42:00,
2013-10-07 21:57:00,54.1,47.0,29.94,WNW,294,10.0,15.0,78,0.00,,,0.52,weatherlink.com 1.10,2013-10-08 01:57:00,
2013-10-07 22:12:00,52.9,48.0,29.95,WNW,283,6.0,9.0,82,0.00,,,0.52,weatherlink.com 1.10,2013-10-08 02:12:00,
2013-10-07 22:27:00,52.3,48.0,29.96,WNW,282,4.0,10.0,84,0.00,,,0.52,weatherlink.com 1.10,2013-10-08 02:27:00,
2013-10-07 22:42:00,51.6,48.0,29.97,WNW,289,5.0,8.0,86,0.00,,,0.52,weatherlink.com 1.10,2013-10-08 02:42:00,
2013-10-07 22:57:00,51.2,48.0,29.98,WNW,283,6.0,9.0,87,0.00,,,0.52,weatherlink.com 1.10,2013-10-08 02:57:00,
2013-10-07 23:12:00,51.0,48.0,29.98,West,279,6.0,11.0,88,0.00,,,0.52,weatherlink.com 1.10,2013-10-08 03:12:00,
2013-10-07 23:28:00,50.6,48.0,29.99,West,274,4.0,8.0,89,0.00,,,0.52,weatherlink.com 1.10,2013-10-08 03:28:00,
2013-10-07 23:43:00,50.4,47.0,30.00,WNW,284,6.0,9.0,89,0.00,,,0.52,weatherlink.com 1.10,2013-10-08 03:43:00,
2013-10-07 23:58:00,50.3,48.0,30.00,West,269,4.0,8.0,90,0.00,,,0.52,weatherlink.com 1.10,2013-10-08 03:58:00,